createdAt,value
2018-05-15T00:00:31.409Z,93.40
2018-05-15T00:03:00.321Z,93.40
2018-05-15T00:05:29.234Z,93.60
2018-05-15T00:07:58.094Z,93.60
2018-05-15T00:10:26.996Z,93.90
2018-05-15T00:12:56.960Z,94.10
2018-05-15T00:15:26.152Z,94.20
2018-05-15T00:17:55.024Z,94.50
2018-05-15T00:20:23.938Z,94.70
2018-05-15T00:22:52.854Z,95.00
2018-05-15T00:25:21.743Z,95.20
2018-05-15T00:27:50.655Z,95.30
2018-05-15T00:30:19.566Z,95.50
2018-05-15T00:32:48.442Z,95.50
2018-05-15T00:35:17.422Z,95.60
2018-05-15T00:37:46.312Z,95.60
2018-05-15T00:40:15.234Z,95.70
2018-05-15T00:42:44.896Z,95.80
2018-05-15T00:45:13.791Z,95.80
2018-05-15T00:47:42.729Z,95.80
2018-05-15T00:50:11.612Z,95.90
2018-05-15T00:52:40.588Z,96.00
2018-05-15T00:55:21.240Z,96.10
2018-05-15T00:57:50.176Z,96.10
2018-05-15T01:00:19.846Z,96.20
2018-05-15T01:02:48.735Z,96.30
2018-05-15T01:05:17.631Z,96.20
2018-05-15T01:07:46.615Z,96.20
2018-05-15T01:10:15.509Z,96.30
2018-05-15T01:12:44.420Z,96.40
2018-05-15T01:15:13.352Z,96.60
2018-05-15T01:17:42.259Z,96.70
2018-05-15T01:20:11.159Z,96.90
2018-05-15T01:22:40.079Z,97.00
2018-05-15T01:25:09.743Z,97.20
2018-05-15T01:27:38.633Z,97.00
2018-05-15T01:30:08.455Z,97.10
2018-05-15T01:32:37.361Z,97.00
2018-05-15T01:35:06.271Z,97.00
2018-05-15T01:37:35.934Z,96.90
2018-05-15T01:40:04.928Z,96.90
2018-05-15T01:42:33.846Z,96.90
2018-05-15T01:45:02.744Z,96.90
2018-05-15T01:47:31.614Z,96.90
2018-05-15T01:50:01.276Z,96.80
2018-05-15T01:52:30.203Z,96.80
2018-05-15T01:54:59.098Z,96.90
2018-05-15T01:57:28.006Z,96.80
2018-05-15T01:59:56.896Z,96.80
2018-05-15T02:02:25.867Z,96.90
2018-05-15T02:04:54.790Z,96.90
2018-05-15T02:07:24.554Z,96.90
2018-05-15T02:09:53.482Z,96.90
2018-05-15T02:12:22.381Z,96.90
2018-05-15T02:14:51.337Z,97.00
2018-05-15T02:17:20.226Z,97.00
2018-05-15T02:19:49.121Z,97.00
2018-05-15T02:22:18.036Z,97.10
2018-05-15T02:24:47.692Z,97.30
2018-05-15T02:27:16.606Z,97.60
2018-05-15T02:29:45.500Z,97.40
2018-05-15T02:32:14.394Z,97.40
2018-05-15T02:34:43.317Z,97.50
2018-05-15T02:37:12.976Z,97.80
2018-05-15T02:39:41.948Z,97.80
2018-05-15T02:42:10.864Z,97.90
2018-05-15T02:44:39.834Z,98.30
2018-05-15T02:47:08.747Z,98.10
2018-05-15T02:49:37.679Z,98.20
2018-05-15T02:52:06.620Z,98.30
2018-05-15T02:54:35.527Z,98.40
2018-05-15T02:57:04.424Z,98.50
2018-05-15T02:59:33.368Z,98.50
2018-05-15T03:02:02.267Z,98.60
2018-05-15T03:04:31.167Z,98.70
2018-05-15T03:07:00.147Z,98.80
2018-05-15T03:09:29.036Z,98.90
2018-05-15T03:11:58.037Z,99.00
2018-05-15T03:14:27.019Z,99.00
2018-05-15T03:16:56.019Z,99.10
2018-05-15T03:19:24.916Z,99.20
2018-05-15T03:21:53.831Z,99.30
2018-05-15T03:24:23.518Z,99.40
2018-05-15T03:26:52.484Z,99.30
2018-05-15T03:29:21.398Z,99.30
2018-05-15T03:31:50.285Z,99.30
2018-05-15T03:34:19.187Z,99.50
2018-05-15T03:36:48.087Z,99.60
2018-05-15T03:39:17.745Z,99.70
2018-05-15T03:41:46.666Z,99.70
2018-05-15T03:44:15.576Z,99.70
2018-05-15T03:46:45.239Z,99.90
2018-05-15T03:49:14.148Z,99.90
2018-05-15T03:51:43.048Z,99.90
2018-05-15T03:54:12.025Z,99.90
2018-05-15T03:56:40.917Z,99.90
2018-05-15T03:59:09.883Z,99.90
2018-05-15T04:01:50.639Z,99.90
2018-05-15T04:04:31.633Z,99.90
2018-05-15T04:07:12.478Z,99.90
2018-05-15T04:09:41.404Z,99.90
2018-05-15T04:12:10.292Z,99.90
2018-05-15T04:14:39.205Z,99.80
2018-05-15T04:17:08.121Z,99.60
2018-05-15T04:19:37.012Z,99.50
2018-05-15T04:22:05.930Z,99.40
2018-05-15T04:24:34.821Z,99.20
2018-05-15T04:27:03.722Z,99.00
2018-05-15T04:29:32.630Z,98.30
2018-05-15T04:32:01.607Z,97.90
2018-05-15T04:34:30.523Z,97.10
2018-05-15T04:37:00.314Z,96.70
2018-05-15T04:39:29.283Z,96.70
2018-05-15T04:41:58.191Z,96.80
2018-05-15T04:44:27.855Z,97.10
2018-05-15T04:46:56.775Z,96.80
2018-05-15T04:49:25.709Z,96.60
2018-05-15T04:51:54.591Z,96.40
2018-05-15T04:54:23.551Z,96.10
2018-05-15T04:56:52.527Z,95.90
2018-05-15T04:59:21.450Z,96.10
2018-05-15T05:01:50.429Z,96.00
2018-05-15T05:04:19.324Z,95.80
2018-05-15T05:06:48.247Z,95.00
2018-05-15T05:09:17.168Z,95.10
2018-05-15T05:11:46.206Z,94.80
2018-05-15T05:14:15.767Z,93.50
2018-05-15T05:16:44.683Z,93.40
2018-05-15T05:19:13.603Z,93.20
2018-05-15T05:21:42.494Z,92.70
2018-05-15T05:24:12.190Z,91.90
2018-05-15T05:26:41.080Z,91.90
2018-05-15T05:29:10.031Z,91.80
2018-05-15T05:31:38.937Z,90.70
2018-05-15T05:34:07.958Z,90.90
2018-05-15T05:36:36.948Z,91.10
2018-05-15T05:39:05.802Z,90.90
2018-05-15T05:41:34.730Z,90.10
2018-05-15T05:44:03.600Z,88.90
2018-05-15T05:46:33.639Z,88.00
2018-05-15T05:49:02.520Z,88.40
2018-05-15T05:51:31.475Z,88.30
2018-05-15T05:54:00.460Z,88.00
2018-05-15T05:56:30.049Z,86.20
2018-05-15T05:58:59.101Z,84.50
2018-05-15T06:01:27.967Z,84.80
2018-05-15T06:03:56.940Z,82.40
2018-05-15T06:06:25.839Z,82.60
2018-05-15T06:08:54.752Z,81.30
2018-05-15T06:11:23.662Z,80.20
2018-05-15T06:13:52.542Z,78.10
2018-05-15T06:16:21.410Z,78.20
2018-05-15T06:18:51.911Z,77.70
2018-05-15T06:21:20.791Z,77.50
2018-05-15T06:23:49.690Z,78.40
2018-05-15T06:26:18.595Z,79.20
2018-05-15T06:28:47.483Z,79.00
2018-05-15T06:31:16.392Z,78.80
2018-05-15T06:33:45.348Z,77.30
2018-05-15T06:36:14.337Z,75.90
2018-05-15T06:38:43.226Z,74.70
2018-05-15T06:41:12.149Z,73.10
2018-05-15T06:43:41.052Z,72.90
2018-05-15T06:46:09.938Z,73.10
2018-05-15T06:48:38.857Z,73.00
2018-05-15T06:51:08.534Z,73.90
2018-05-15T06:53:38.294Z,74.60
2018-05-15T06:56:07.221Z,73.80
2018-05-15T06:58:36.098Z,72.60
2018-05-15T07:01:05.025Z,71.70
2018-05-15T07:03:33.915Z,72.20
2018-05-15T07:06:02.811Z,71.40
2018-05-15T07:08:32.474Z,72.50
2018-05-15T07:11:01.456Z,72.40
2018-05-15T07:13:30.370Z,70.40
2018-05-15T07:15:59.343Z,69.60
2018-05-15T07:18:28.281Z,68.50
2018-05-15T07:20:57.150Z,68.40
2018-05-15T07:23:26.034Z,67.80
2018-05-15T07:25:54.928Z,69.60
2018-05-15T07:28:23.925Z,67.60
2018-05-15T07:30:52.792Z,67.20
2018-05-15T07:33:21.708Z,67.30
2018-05-15T07:35:50.584Z,67.30
2018-05-15T07:38:20.408Z,67.80
2018-05-15T07:40:49.292Z,67.00
2018-05-15T07:43:18.232Z,67.00
2018-05-15T07:45:47.149Z,65.70
2018-05-15T07:48:16.109Z,65.40
2018-05-15T07:50:44.922Z,64.80
2018-05-15T07:53:13.870Z,64.30
2018-05-15T07:55:42.937Z,63.20
2018-05-15T07:58:11.807Z,63.20
2018-05-15T08:00:40.682Z,62.20
2018-05-15T08:03:09.584Z,63.00
2018-05-15T08:05:38.483Z,62.80
2018-05-15T08:08:07.383Z,62.50
2018-05-15T08:10:36.283Z,62.90
2018-05-15T08:13:05.190Z,63.80
2018-05-15T08:15:34.085Z,64.10
2018-05-15T08:18:02.966Z,63.30
2018-05-15T08:20:31.882Z,62.40
2018-05-15T08:23:00.763Z,61.60
2018-05-15T08:25:29.683Z,61.70
2018-05-15T08:27:58.572Z,62.70
2018-05-15T08:30:27.444Z,61.00
2018-05-15T08:32:56.446Z,60.40
2018-05-15T08:35:25.333Z,60.10
2018-05-15T08:37:54.279Z,60.50
2018-05-15T08:40:23.932Z,61.20
2018-05-15T08:42:52.822Z,61.10
2018-05-15T08:45:21.721Z,62.30
2018-05-15T08:47:50.607Z,62.30
2018-05-15T08:50:19.595Z,61.50
2018-05-15T08:52:48.487Z,61.50
2018-05-15T08:55:17.458Z,61.60
2018-05-15T08:57:46.350Z,61.60
2018-05-15T09:00:15.277Z,60.10
2018-05-15T09:02:44.164Z,60.60
2018-05-15T09:05:13.055Z,60.70
2018-05-15T09:07:41.947Z,60.70
2018-05-15T09:10:10.850Z,59.40
2018-05-15T09:12:39.729Z,59.80
2018-05-15T09:15:08.920Z,61.20
2018-05-15T09:17:39.420Z,59.10
2018-05-15T09:20:08.315Z,59.20
2018-05-15T09:22:37.294Z,58.70
2018-05-15T09:25:06.171Z,58.20
2018-05-15T09:27:35.077Z,58.20
2018-05-15T09:30:03.962Z,58.60
2018-05-15T09:32:32.832Z,57.40
2018-05-15T09:35:01.701Z,58.70
2018-05-15T09:37:31.376Z,58.80
2018-05-15T09:40:00.253Z,58.60
2018-05-15T09:42:29.145Z,57.00
2018-05-15T09:44:58.027Z,56.90
2018-05-15T09:47:26.999Z,54.70
2018-05-15T09:49:56.007Z,54.70
2018-05-15T09:52:24.931Z,54.20
2018-05-15T09:54:53.761Z,53.30
2018-05-15T09:57:22.669Z,53.00
2018-05-15T09:59:51.594Z,52.30
2018-05-15T10:02:20.479Z,52.90
2018-05-15T10:04:49.366Z,52.30
2018-05-15T10:07:18.255Z,52.50
2018-05-15T10:09:47.132Z,52.00
2018-05-15T10:12:16.004Z,50.10
2018-05-15T10:14:44.903Z,49.30
2018-05-15T10:17:13.787Z,49.20
2018-05-15T10:19:42.702Z,49.40
2018-05-15T10:22:11.571Z,49.90
2018-05-15T10:24:40.438Z,50.70
2018-05-15T10:27:09.335Z,51.20
2018-05-15T10:29:38.211Z,50.30
2018-05-15T10:32:07.134Z,51.70
2018-05-15T10:34:36.014Z,51.70
2018-05-15T10:37:04.891Z,53.50
2018-05-15T10:39:33.776Z,55.10
2018-05-15T10:42:02.652Z,57.00
2018-05-15T10:44:31.533Z,58.60
2018-05-15T10:47:00.419Z,59.20
2018-05-15T10:49:29.315Z,61.20
2018-05-15T10:51:59.075Z,64.30
2018-05-15T10:54:27.973Z,65.90
2018-05-15T10:56:56.858Z,69.80
2018-05-15T10:59:25.762Z,71.50
2018-05-15T11:01:55.405Z,75.90
2018-05-15T11:04:24.321Z,75.90
2018-05-15T11:06:53.380Z,78.30
2018-05-15T11:09:22.505Z,78.70
2018-05-15T11:11:51.472Z,79.70
2018-05-15T11:14:20.362Z,81.70
2018-05-15T11:16:49.316Z,81.10
2018-05-15T11:19:30.636Z,82.80
2018-05-15T11:22:11.202Z,82.70
2018-05-15T11:24:51.718Z,81.50
2018-05-15T11:27:20.611Z,82.10
2018-05-15T11:29:50.271Z,85.20
2018-05-15T11:32:19.164Z,85.10
2018-05-15T11:34:48.111Z,82.90
2018-05-15T11:37:16.992Z,83.60
2018-05-15T11:39:46.677Z,81.50
2018-05-15T11:42:15.552Z,81.50
2018-05-15T11:44:44.443Z,82.20
2018-05-15T11:47:13.354Z,80.60
2018-05-15T11:49:44.105Z,82.90
2018-05-15T11:52:12.839Z,82.90
2018-05-15T11:54:41.815Z,81.40
2018-05-15T11:57:10.715Z,81.30
2018-05-15T11:59:39.600Z,78.40
2018-05-15T12:02:08.495Z,80.60
2018-05-15T12:04:37.419Z,80.20
2018-05-15T12:07:06.359Z,81.60
2018-05-15T12:09:35.242Z,78.50
2018-05-15T12:12:04.139Z,81.40
2018-05-15T12:14:33.052Z,80.70
2018-05-15T12:17:01.941Z,76.80
2018-05-15T12:19:30.826Z,74.80
2018-05-15T12:21:59.911Z,76.40
2018-05-15T12:24:28.826Z,71.70
2018-05-15T12:26:57.747Z,69.60
2018-05-15T12:29:26.617Z,67.30
2018-05-15T12:31:55.476Z,65.70
2018-05-15T12:34:24.386Z,62.40
2018-05-15T12:36:53.264Z,61.10
2018-05-15T12:39:22.144Z,60.30
2018-05-15T12:41:51.064Z,62.30
2018-05-15T12:44:19.940Z,74.40
2018-05-15T12:46:48.955Z,73.40
2018-05-15T12:49:17.771Z,72.50
2018-05-15T12:51:46.672Z,73.00
2018-05-15T12:54:15.588Z,72.60
2018-05-15T12:56:46.008Z,72.30
2018-05-15T12:59:14.946Z,71.60
2018-05-15T13:01:44.677Z,73.20
2018-05-15T13:04:13.527Z,73.20
2018-05-15T13:06:42.412Z,75.80
2018-05-15T13:09:11.303Z,69.30
2018-05-15T13:11:40.968Z,63.20
2018-05-15T13:14:09.857Z,63.20
2018-05-15T13:16:38.725Z,63.60
2018-05-15T13:19:07.617Z,65.70
2018-05-15T13:21:36.494Z,67.90
2018-05-15T13:24:05.388Z,69.70
2018-05-15T13:26:34.276Z,71.50
2018-05-15T13:29:03.177Z,72.60
2018-05-15T13:31:32.079Z,72.90
2018-05-15T13:34:00.965Z,73.10
2018-05-15T13:36:29.906Z,72.30
2018-05-15T13:38:59.558Z,71.90
2018-05-15T13:41:28.444Z,71.80
2018-05-15T13:43:57.356Z,72.40
2018-05-15T13:46:26.227Z,73.20
2018-05-15T13:48:55.134Z,73.20
2018-05-15T13:51:24.015Z,73.00
2018-05-15T13:53:52.946Z,73.70
2018-05-15T13:56:21.832Z,73.90
2018-05-15T13:58:50.721Z,74.60
2018-05-15T14:01:19.624Z,75.40
2018-05-15T14:03:49.287Z,76.00
2018-05-15T14:06:18.195Z,75.40
2018-05-15T14:08:47.086Z,75.50
2018-05-15T14:11:15.963Z,74.30
2018-05-15T14:13:44.854Z,73.90
2018-05-15T14:16:13.736Z,73.60
2018-05-15T14:18:42.633Z,73.10
2018-05-15T14:21:11.562Z,73.90
2018-05-15T14:23:40.443Z,73.80
2018-05-15T14:26:09.348Z,73.40
2018-05-15T14:28:38.993Z,72.60
2018-05-15T14:31:07.876Z,72.60
2018-05-15T14:33:36.840Z,70.40
2018-05-15T14:36:05.655Z,69.30
2018-05-15T14:38:34.568Z,68.60
2018-05-15T14:41:03.495Z,69.70
2018-05-15T14:43:32.450Z,67.60
2018-05-15T14:46:01.328Z,67.30
2018-05-15T14:48:30.249Z,64.80
2018-05-15T14:54:16.457Z,62.10
2018-05-15T14:56:45.336Z,58.80
2018-05-15T14:59:14.253Z,57.80
2018-05-15T15:01:43.927Z,53.10
2018-05-15T15:04:12.808Z,53.00
2018-05-15T15:06:41.700Z,52.60
2018-05-15T15:09:10.607Z,49.20
2018-05-15T15:11:39.501Z,47.10
2018-05-15T15:14:08.458Z,46.80
2018-05-15T15:16:37.351Z,45.40
2018-05-15T15:19:06.255Z,41.60
2018-05-15T15:21:35.154Z,39.20
2018-05-15T15:24:04.064Z,36.60
2018-05-15T15:26:33.703Z,33.30
2018-05-15T15:29:02.596Z,33.30
2018-05-15T15:31:31.477Z,32.00
2018-05-15T15:34:00.385Z,32.10
2018-05-15T15:36:29.382Z,30.30
2018-05-15T15:38:58.354Z,28.90
2018-05-15T15:41:27.251Z,27.00
2018-05-15T15:43:56.127Z,25.40
2018-05-15T15:46:25.019Z,25.10
2018-05-15T15:48:53.910Z,25.10
2018-05-15T15:51:22.795Z,24.70
2018-05-15T15:53:51.676Z,23.90
2018-05-15T15:56:20.583Z,23.80
2018-05-15T15:58:49.478Z,23.60
2018-05-15T16:01:18.381Z,24.20
2018-05-15T16:03:47.263Z,24.80
2018-05-15T16:06:16.161Z,24.80
2018-05-15T16:08:45.060Z,24.30
2018-05-15T16:11:13.915Z,24.40
2018-05-15T16:13:42.847Z,23.80
2018-05-15T16:16:11.717Z,23.80
2018-05-15T16:18:41.387Z,25.20
2018-05-15T16:21:11.055Z,25.80
2018-05-15T16:23:39.936Z,25.80
2018-05-15T16:26:08.844Z,26.90
2018-05-15T16:28:37.859Z,28.20
2018-05-15T16:31:06.678Z,29.40
2018-05-15T16:33:35.653Z,30.00
2018-05-15T16:36:04.467Z,30.90
2018-05-15T16:38:33.371Z,32.20
2018-05-15T16:41:02.284Z,32.80
2018-05-15T16:43:31.148Z,33.80
2018-05-15T16:46:00.067Z,35.20
2018-05-15T16:48:29.720Z,37.00
2018-05-15T16:50:58.637Z,36.90
2018-05-15T16:53:27.649Z,38.00
2018-05-15T16:55:56.408Z,38.80
2018-05-15T16:58:25.278Z,39.80
2018-05-15T17:00:54.193Z,40.00
2018-05-15T17:03:23.087Z,40.40
2018-05-15T17:05:52.026Z,41.10
2018-05-15T17:08:21.697Z,42.90
2018-05-15T17:10:50.601Z,42.80
2018-05-15T17:13:20.332Z,44.90
2018-05-15T17:15:49.163Z,44.80
2018-05-15T17:18:18.038Z,46.10
2018-05-15T17:20:46.915Z,48.80
2018-05-15T17:23:15.937Z,51.70
2018-05-15T17:25:44.831Z,53.70
2018-05-15T17:28:13.739Z,55.90
2018-05-15T17:30:43.392Z,59.50
2018-05-15T17:33:12.421Z,59.30
2018-05-15T17:35:41.441Z,61.00
2018-05-15T17:38:11.215Z,64.30
2018-05-15T17:40:40.159Z,64.20
2018-05-15T17:43:09.046Z,65.80
2018-05-15T17:45:38.721Z,68.80
2018-05-15T17:48:08.492Z,70.00
2018-05-15T17:50:37.448Z,70.00
2018-05-15T17:53:07.197Z,73.90
2018-05-15T17:55:36.809Z,74.20
2018-05-15T17:58:05.736Z,74.10
2018-05-15T18:00:35.425Z,77.80
2018-05-15T18:03:04.302Z,77.70
2018-05-15T18:05:33.255Z,79.40
2018-05-15T18:08:02.143Z,81.60
2018-05-15T18:10:31.049Z,82.30
2018-05-15T18:12:59.982Z,84.30
2018-05-15T18:15:28.911Z,87.90
2018-05-15T18:17:57.805Z,88.60
2018-05-15T18:20:26.726Z,90.10
2018-05-15T18:22:55.750Z,91.00
2018-05-15T18:25:25.435Z,91.90
2018-05-15T18:27:55.865Z,91.60
2018-05-15T18:30:24.762Z,91.60
2018-05-15T18:32:54.534Z,91.70
2018-05-15T18:35:23.340Z,91.60
2018-05-15T18:37:52.272Z,91.70
2018-05-15T18:40:21.945Z,90.70
2018-05-15T18:42:50.835Z,90.70
2018-05-15T18:45:20.623Z,90.90
2018-05-15T18:47:49.425Z,90.80
2018-05-15T18:50:18.357Z,91.00
2018-05-15T18:52:47.328Z,91.10
2018-05-15T18:55:16.227Z,91.10
2018-05-15T19:00:21.264Z,91.10
2018-05-15T19:02:50.232Z,91.60
2018-05-15T19:05:19.173Z,92.10
2018-05-15T19:07:48.094Z,92.50
2018-05-15T19:10:17.035Z,92.40
2018-05-15T19:12:46.723Z,92.60
2018-05-15T19:15:15.696Z,92.60
2018-05-15T19:17:44.597Z,92.80
2018-05-15T19:20:13.519Z,92.60
2018-05-15T19:22:42.422Z,92.60
2018-05-15T19:25:11.379Z,92.60
2018-05-15T19:27:40.472Z,92.70
2018-05-15T19:30:09.601Z,92.90
2018-05-15T19:32:38.547Z,92.70
2018-05-15T19:35:07.493Z,92.80
2018-05-15T19:37:36.423Z,92.60
2018-05-15T19:40:11.006Z,92.60
2018-05-15T19:42:39.891Z,92.70
2018-05-15T19:45:09.652Z,92.70
2018-05-15T19:47:38.559Z,92.90
2018-05-15T19:50:08.223Z,92.90
2018-05-15T19:52:37.192Z,92.90
2018-05-15T19:55:06.098Z,93.00
2018-05-15T19:57:35.026Z,93.10
2018-05-15T20:00:05.493Z,93.30
2018-05-15T20:02:35.203Z,93.60
2018-05-15T20:05:04.144Z,93.50
2018-05-15T20:07:33.032Z,93.70
2018-05-15T20:10:01.959Z,93.60
2018-05-15T20:12:31.745Z,93.60
2018-05-15T20:15:00.670Z,93.60
2018-05-15T20:17:29.598Z,94.40
2018-05-15T20:19:58.509Z,94.20
2018-05-15T20:22:27.452Z,94.30
2018-05-15T20:24:56.403Z,94.60
2018-05-15T20:27:26.324Z,94.50
2018-05-15T20:29:56.013Z,94.80
2018-05-15T20:32:24.976Z,94.70
2018-05-15T20:34:53.994Z,94.70
2018-05-15T20:37:22.823Z,94.80
2018-05-15T20:39:52.511Z,95.00
2018-05-15T20:42:22.214Z,95.10
2018-05-15T20:44:51.112Z,95.00
2018-05-15T20:47:20.812Z,95.10
2018-05-15T20:49:50.473Z,95.10
2018-05-15T20:52:19.407Z,95.00
2018-05-15T20:54:48.277Z,94.90
2018-05-15T20:57:17.205Z,95.10
2018-05-15T20:59:46.914Z,95.20
2018-05-15T21:02:16.693Z,95.10
2018-05-15T21:04:45.636Z,95.10
2018-05-15T21:07:14.548Z,95.20
2018-05-15T21:09:43.652Z,95.20
2018-05-15T21:12:12.607Z,95.20
2018-05-15T21:14:41.528Z,95.20
2018-05-15T21:17:10.448Z,95.40
2018-05-15T21:19:41.441Z,95.70
2018-05-15T21:22:10.375Z,95.70
2018-05-15T21:24:40.043Z,95.60
2018-05-15T21:27:08.925Z,95.60
2018-05-15T21:29:37.899Z,95.80
2018-05-15T21:32:06.799Z,95.80
2018-05-15T21:34:35.736Z,96.00
2018-05-15T21:37:04.644Z,96.20
2018-05-15T21:39:34.336Z,96.40
2018-05-15T21:42:04.099Z,96.50
2018-05-15T21:44:33.008Z,96.50
2018-05-15T21:47:01.999Z,96.40
2018-05-15T21:49:30.914Z,96.50
2018-05-15T21:52:00.607Z,96.60
2018-05-15T21:54:29.601Z,96.60
2018-05-15T21:56:58.519Z,96.60
2018-05-15T21:59:29.117Z,96.80
2018-05-15T22:01:58.047Z,96.80
2018-05-15T22:04:26.968Z,96.90
2018-05-15T22:06:55.889Z,97.00
2018-05-15T22:09:24.867Z,96.80
2018-05-15T22:12:05.473Z,96.80
2018-05-15T22:14:47.144Z,96.80
2018-05-15T22:17:28.083Z,96.80
2018-05-15T22:20:08.973Z,96.70
2018-05-15T22:22:37.427Z,96.80
2018-05-15T22:25:06.448Z,96.80
2018-05-15T22:27:35.366Z,96.80
2018-05-15T22:30:05.142Z,96.90
2018-05-15T22:32:34.131Z,96.90
2018-05-15T22:35:03.027Z,96.70
2018-05-15T22:37:32.006Z,96.50
2018-05-15T22:40:00.896Z,96.50
2018-05-15T22:42:29.773Z,96.40
2018-05-15T22:44:58.683Z,96.20
2018-05-15T22:47:27.574Z,96.00
2018-05-15T22:49:56.478Z,95.90
2018-05-15T22:52:26.880Z,95.60
2018-05-15T22:54:55.766Z,95.50
2018-05-15T22:57:24.676Z,95.40
2018-05-15T22:59:53.598Z,95.30
2018-05-15T23:02:22.558Z,95.30
2018-05-15T23:04:51.451Z,95.20
2018-05-15T23:07:20.360Z,95.10
2018-05-15T23:09:49.267Z,95.20
2018-05-15T23:12:18.244Z,95.30
2018-05-15T23:14:47.210Z,95.30
2018-05-15T23:17:16.205Z,95.30
2018-05-15T23:19:45.104Z,95.40
2018-05-15T23:22:15.727Z,95.40
2018-05-15T23:24:44.623Z,95.40
2018-05-15T23:27:13.539Z,95.20
2018-05-15T23:29:42.438Z,95.00
2018-05-15T23:32:11.358Z,95.00
2018-05-15T23:34:40.248Z,95.10
2018-05-15T23:37:09.171Z,95.00
2018-05-15T23:39:38.057Z,95.10
2018-05-15T23:42:06.971Z,95.10
2018-05-15T23:44:35.972Z,94.80
2018-05-15T23:47:04.912Z,94.90
2018-05-15T23:49:33.812Z,94.90
2018-05-15T23:52:02.693Z,94.80
2018-05-15T23:54:31.613Z,94.70
2018-05-15T23:57:00.493Z,94.80
2018-05-15T23:59:29.485Z,94.80
